Time;durP1;ratioP1;P1;durP2;ratioP2;P2;SDS_P1;SDS_P2;PMS_P1;PMS_P2;Temp;Humidity;BMP_temperature;BMP_pressure;BME280_temperature;BME280_humidity;BME280_pressure;Samples;Min_cycle;Max_cycle;Signal;HPM_P1;HPM_P2
2022/06/08 00:04:30;;;;;;;3.37;3.07;;;17.60;99.90;;;;;;10400978;28;20686;-78
2022/06/08 00:09:33;;;;;;;3.50;2.70;;;17.50;99.90;;;;;;10408884;28;20216;-78
2022/06/08 00:14:36;;;;;;;3.47;2.80;;;17.50;99.90;;;;;;10408591;28;20645;-77
2022/06/08 00:19:40;;;;;;;3.57;3.37;;;17.50;99.90;;;;;;10412052;28;20629;-78
2022/06/08 00:24:42;;;;;;;3.90;3.27;;;17.50;99.90;;;;;;10408716;28;20745;-78
2022/06/08 00:29:44;;;;;;;2.90;2.70;;;17.30;99.90;;;;;;10402172;28;20213;-77
2022/06/08 00:34:49;;;;;;;2.77;2.57;;;17.30;99.90;;;;;;10388878;28;20294;-78
2022/06/08 00:39:51;;;;;;;2.87;2.67;;;17.20;99.90;;;;;;10408403;28;20659;-77
2022/06/08 00:44:58;;;;;;;2.97;2.67;;;17.30;99.90;;;;;;10409049;28;20653;-77
2022/06/08 00:50:06;;;;;;;2.93;2.60;;;17.30;99.90;;;;;;10404135;28;20280;-78
2022/06/08 00:55:13;;;;;;;3.20;3.00;;;17.40;99.90;;;;;;10396535;28;20210;-77
2022/06/08 01:00:18;;;;;;;3.00;2.80;;;17.40;99.90;;;;;;10401493;28;20233;-77
2022/06/08 01:05:26;;;;;;;3.30;3.00;;;17.30;99.90;;;;;;10396988;28;20241;-77
2022/06/08 01:10:36;;;;;;;3.37;3.17;;;17.30;99.90;;;;;;10414099;28;20295;-77
2022/06/08 01:15:41;;;;;;;5.00;4.60;;;17.30;99.90;;;;;;10408228;28;20244;-77
2022/06/08 01:20:51;;;;;;;3.50;3.30;;;17.20;99.90;;;;;;10403265;28;20201;-77
2022/06/08 01:26:12;;;;;;;3.47;3.17;;;17.30;99.90;;;;;;10410678;28;20756;-77
2022/06/08 01:31:24;;;;;;;3.30;3.10;;;17.30;99.90;;;;;;10411408;28;20281;-77
2022/06/08 01:36:53;;;;;;;3.20;3.00;;;17.20;99.90;;;;;;10400513;28;20603;-77
2022/06/08 01:42:15;;;;;;;3.93;2.87;;;17.30;99.90;;;;;;10402569;28;20194;-77
2022/06/08 01:47:26;;;;;;;3.17;2.80;;;17.30;99.90;;;;;;10401348;28;20198;-78
2022/06/08 01:52:39;;;;;;;2.57;2.47;;;17.30;99.90;;;;;;10413680;28;20198;-77
2022/06/08 01:57:57;;;;;;;2.87;2.73;;;17.20;99.90;;;;;;10398868;28;20218;-77
2022/06/08 02:03:07;;;;;;;3.23;2.93;;;17.20;99.90;;;;;;10387084;28;20573;-77
2022/06/08 02:08:24;;;;;;;3.50;3.20;;;17.30;99.90;;;;;;10400158;28;20208;-77
2022/06/08 02:13:33;;;;;;;2.83;2.73;;;17.30;99.90;;;;;;10413091;28;20237;-78
2022/06/08 02:18:41;;;;;;;3.40;2.80;;;17.20;99.90;;;;;;10414263;28;20214;-78
2022/06/08 02:23:48;;;;;;;2.90;2.80;;;17.10;99.90;;;;;;10407402;28;20601;-77
2022/06/08 02:28:57;;;;;;;4.00;2.70;;;17.10;99.90;;;;;;10395660;28;20300;-77
2022/06/08 02:39:27;;;;;;;3.00;2.80;;;16.90;99.90;;;;;;10404961;28;20380;-78
2022/06/08 02:44:34;;;;;;;3.03;2.83;;;16.90;99.90;;;;;;10412606;28;20228;-78
2022/06/08 02:49:37;;;;;;;3.40;3.30;;;16.80;99.90;;;;;;10408213;28;20194;-77
2022/06/08 02:54:44;;;;;;;2.73;2.63;;;16.90;99.90;;;;;;10407122;28;20233;-78
2022/06/08 02:59:53;;;;;;;3.43;3.20;;;16.80;99.90;;;;;;10406260;28;20209;-78
2022/06/08 03:05:08;;;;;;;3.07;2.77;;;16.80;99.90;;;;;;10407477;28;20260;-77
2022/06/08 03:10:15;;;;;;;2.60;2.40;;;16.70;99.90;;;;;;10413977;28;20263;-78
2022/06/08 03:15:24;;;;;;;3.03;2.70;;;16.70;99.90;;;;;;10405232;28;20248;-78
2022/06/08 03:20:28;;;;;;;4.73;3.20;;;16.80;99.90;;;;;;10407417;28;20540;-78
2022/06/08 03:25:31;;;;;;;3.70;3.50;;;16.90;99.90;;;;;;10406113;28;20225;-77
2022/06/08 03:30:37;;;;;;;3.50;3.30;;;17.10;99.90;;;;;;10407949;28;20220;-77
2022/06/08 03:35:41;;;;;;;3.90;3.70;;;17.10;99.90;;;;;;10406793;28;20217;-77
2022/06/08 03:40:44;;;;;;;4.83;4.10;;;17.20;99.90;;;;;;10403329;28;20244;-78
2022/06/08 03:45:51;;;;;;;4.13;3.83;;;17.20;99.90;;;;;;10404021;28;20297;-77
2022/06/08 03:50:56;;;;;;;3.30;3.00;;;17.20;99.90;;;;;;10402853;28;20206;-77
2022/06/08 03:56:01;;;;;;;3.00;2.80;;;17.20;99.90;;;;;;10403622;28;20316;-77
2022/06/08 04:01:05;;;;;;;4.17;3.77;;;17.30;99.90;;;;;;10409269;28;20552;-77
2022/06/08 04:06:07;;;;;;;5.83;2.90;;;17.40;99.90;;;;;;10396314;28;20210;-77
2022/06/08 04:11:12;;;;;;;4.33;2.77;;;17.40;99.90;;;;;;10403389;28;20724;-77
2022/06/08 04:16:17;;;;;;;4.60;2.63;;;17.30;99.90;;;;;;10404362;28;20233;-77
2022/06/08 04:21:21;;;;;;;3.40;3.10;;;17.40;99.90;;;;;;10409236;28;20210;-77
2022/06/08 04:26:29;;;;;;;2.97;2.77;;;17.50;99.90;;;;;;10407807;28;20228;-77
2022/06/08 04:31:39;;;;;;;3.30;3.00;;;17.70;99.90;;;;;;10389431;28;20228;-77
2022/06/08 04:36:51;;;;;;;3.53;3.20;;;17.90;99.90;;;;;;10411745;28;20229;-78
2022/06/08 04:41:57;;;;;;;2.93;2.73;;;17.90;99.90;;;;;;10415827;28;20194;-78
2022/06/08 04:47:07;;;;;;;2.67;2.57;;;17.80;99.90;;;;;;10415942;28;20694;-78
2022/06/08 04:52:11;;;;;;;4.57;3.40;;;17.70;99.90;;;;;;10413717;28;20264;-78
2022/06/08 04:57:14;;;;;;;3.00;2.80;;;17.70;99.90;;;;;;10404177;28;20226;-78
2022/06/08 05:07:35;;;;;;;3.20;3.00;;;17.70;99.90;;;;;;10415622;28;20206;-78
2022/06/08 05:12:40;;;;;;;4.80;2.87;;;17.70;99.90;;;;;;10417238;28;20316;-78
2022/06/08 05:17:44;;;;;;;3.73;2.80;;;17.80;99.90;;;;;;10394526;28;20213;-78
2022/06/08 05:22:47;;;;;;;2.77;2.57;;;17.70;99.90;;;;;;10412526;28;20221;-78
2022/06/08 05:27:49;;;;;;;6.40;2.60;;;17.90;99.90;;;;;;10413003;28;20434;-78
2022/06/08 05:32:54;;;;;;;4.53;2.93;;;18.10;99.90;;;;;;10409374;28;20645;-78
2022/06/08 05:37:58;;;;;;;4.20;2.40;;;18.30;99.90;;;;;;10416631;28;20308;-77
2022/06/08 05:43:02;;;;;;;4.43;2.37;;;18.50;99.90;;;;;;10393259;28;20312;-77
2022/06/08 05:48:06;;;;;;;2.87;2.60;;;18.70;99.90;;;;;;10412223;28;20203;-78
2022/06/08 05:53:13;;;;;;;3.37;2.40;;;18.80;99.90;;;;;;10411379;28;20222;-77
2022/06/08 05:58:15;;;;;;;2.93;2.73;;;18.80;99.90;;;;;;10412846;28;20235;-77
2022/06/08 06:03:21;;;;;;;4.40;2.97;;;19.00;99.90;;;;;;10396648;28;20225;-77
2022/06/08 06:08:26;;;;;;;7.73;3.30;;;19.10;99.90;;;;;;10409489;28;20194;-77
2022/06/08 06:13:34;;;;;;;3.03;2.80;;;19.40;99.90;;;;;;10432092;22;20696;-76
2022/06/08 06:18:38;;;;;;;3.07;2.80;;;19.70;99.90;;;;;;10408636;28;20228;-76
2022/06/08 06:23:53;;;;;;;3.77;2.80;;;20.00;99.90;;;;;;10394206;28;20701;-76
2022/06/08 06:29:10;;;;;;;2.67;2.47;;;20.20;99.90;;;;;;10395904;28;20656;-76
2022/06/08 06:34:34;;;;;;;2.20;2.10;;;20.40;99.90;;;;;;10403449;28;20230;-76
2022/06/08 06:39:37;;;;;;;2.83;2.43;;;20.70;99.90;;;;;;10407452;28;20198;-76
2022/06/08 06:44:49;;;;;;;2.50;2.40;;;20.90;99.90;;;;;;10409005;28;20633;-76
2022/06/08 06:50:04;;;;;;;3.63;2.50;;;21.20;99.90;;;;;;10409871;28;20206;-76
2022/06/08 06:55:08;;;;;;;2.70;2.40;;;21.40;99.90;;;;;;10395174;28;20448;-76
2022/06/08 07:00:12;;;;;;;3.07;2.80;;;21.60;99.90;;;;;;10405722;28;20201;-77
2022/06/08 07:05:19;;;;;;;2.80;2.57;;;21.80;99.90;;;;;;10406208;28;20228;-76
2022/06/08 07:10:22;;;;;;;3.03;2.70;;;21.90;99.50;;;;;;10408501;28;20241;-76
2022/06/08 07:15:26;;;;;;;4.00;3.10;;;22.10;99.90;;;;;;10413525;28;20313;-77
2022/06/08 07:20:30;;;;;;;4.40;2.60;;;22.30;98.40;;;;;;10403640;28;20570;-77
2022/06/08 07:25:33;;;;;;;3.83;2.23;;;22.60;99.00;;;;;;10391581;28;20662;-77
2022/06/08 07:30:36;;;;;;;3.00;2.67;;;22.60;98.00;;;;;;10383583;28;20202;-78
2022/06/08 07:35:39;;;;;;;2.30;2.20;;;22.70;97.90;;;;;;10406692;28;20225;-77
2022/06/08 07:40:41;;;;;;;3.00;2.80;;;22.40;96.30;;;;;;10412400;28;20678;-77
2022/06/08 07:45:44;;;;;;;4.30;3.10;;;22.30;98.50;;;;;;10410306;28;20650;-78
2022/06/08 07:50:47;;;;;;;11.13;3.10;;;22.60;97.30;;;;;;10412098;28;20202;-78
2022/06/08 07:55:50;;;;;;;2.80;2.50;;;22.80;95.10;;;;;;10412503;28;20232;-78
2022/06/08 08:00:53;;;;;;;3.03;2.60;;;23.30;94.70;;;;;;10413842;28;20615;-78
2022/06/08 08:05:57;;;;;;;2.83;2.63;;;23.80;94.40;;;;;;10411017;28;20214;-78
2022/06/08 08:10:59;;;;;;;2.53;2.33;;;24.40;93.50;;;;;;10408175;28;20241;-77
2022/06/08 08:16:01;;;;;;;2.80;2.23;;;25.00;93.40;;;;;;10412849;28;20701;-78
2022/06/08 08:21:05;;;;;;;3.77;2.90;;;25.70;92.60;;;;;;10407960;28;20244;-77
2022/06/08 08:26:07;;;;;;;2.40;2.20;;;26.20;90.60;;;;;;10403207;28;20265;-78
2022/06/08 08:31:09;;;;;;;2.90;2.70;;;26.20;85.50;;;;;;10417586;28;20658;-78
2022/06/08 08:36:13;;;;;;;3.60;2.10;;;26.40;86.60;;;;;;10396830;28;20257;-78
2022/06/08 08:46:44;;;;;;;2.23;2.13;;;27.20;82.30;;;;;;10408238;28;20217;-78
2022/06/08 08:51:58;;;;;;;2.70;2.50;;;27.50;80.90;;;;;;10400559;28;20271;-78
2022/06/08 08:57:16;;;;;;;4.60;2.47;;;27.60;77.10;;;;;;10408845;28;20226;-78
2022/06/08 09:03:14;;;;;;;2.37;2.27;;;27.70;78.80;;;;;;10396506;28;20212;-78
2022/06/08 09:07:47;;;;;;;2.93;2.37;;;28.00;77.60;;;;;;10405505;28;20218;-78
2022/06/08 09:12:50;;;;;;;2.57;2.37;;;28.10;77.80;;;;;;10411598;28;20233;-78
2022/06/08 09:17:56;;;;;;;2.60;2.43;;;28.00;75.50;;;;;;10413427;28;20221;-78
2022/06/08 09:23:05;;;;;;;2.27;2.17;;;28.20;75.30;;;;;;10408868;28;20233;-78
2022/06/08 09:28:30;;;;;;;2.17;2.07;;;28.50;74.20;;;;;;10409440;28;20603;-78
2022/06/08 09:33:35;;;;;;;2.47;2.27;;;29.00;75.70;;;;;;10408541;28;20680;-79
2022/06/08 09:38:40;;;;;;;2.30;2.20;;;29.60;71.00;;;;;;10407352;28;20388;-79
2022/06/08 09:44:05;;;;;;;3.60;2.40;;;30.40;68.20;;;;;;10408393;28;20222;-79
2022/06/08 09:54:42;;;;;;;2.50;2.30;;;32.60;60.80;;;;;;10401391;28;20318;-79
2022/06/08 10:00:20;;;;;;;2.43;2.23;;;33.40;58.40;;;;;;10390186;28;20692;-79
2022/06/08 10:05:32;;;;;;;3.83;2.27;;;34.20;52.90;;;;;;10389615;28;20209;-78
2022/06/08 10:10:42;;;;;;;2.77;2.20;;;34.70;55.10;;;;;;10407909;28;20198;-78
2022/06/08 10:15:48;;;;;;;1.87;1.77;;;33.60;53.40;;;;;;10386646;28;20223;-78
2022/06/08 10:20:55;;;;;;;2.03;1.93;;;31.90;53.90;;;;;;10403830;28;20206;-78
2022/06/08 10:26:02;;;;;;;1.93;1.77;;;31.20;57.60;;;;;;10403912;28;20305;-78
2022/06/08 10:31:13;;;;;;;2.10;2.00;;;30.30;57.80;;;;;;10398416;28;20666;-78
2022/06/08 10:36:16;;;;;;;2.63;2.43;;;29.30;57.30;;;;;;10403737;28;20708;-79
2022/06/08 10:46:52;;;;;;;2.30;2.10;;;27.70;57.40;;;;;;10413774;28;20221;-78
2022/06/08 10:52:16;;;;;;;2.30;2.10;;;26.90;62.70;;;;;;10394694;28;20205;-78
2022/06/08 10:58:03;;;;;;;3.13;2.10;;;26.30;64.50;;;;;;10408523;28;20228;-79
2022/06/08 11:03:22;;;;;;;2.13;2.00;;;25.70;62.70;;;;;;10412219;28;20641;-78
2022/06/08 11:08:25;;;;;;;2.33;2.13;;;25.50;65.70;;;;;;10414974;28;20244;-78
2022/06/08 11:13:36;;;;;;;3.20;2.10;;;25.20;63.10;;;;;;10416482;28;20249;-78
2022/06/08 11:18:45;;;;;;;2.33;2.13;;;25.00;60.70;;;;;;10415244;28;20230;-78
2022/06/08 11:23:51;;;;;;;4.47;2.27;;;24.70;61.20;;;;;;10418814;28;20267;-78
2022/06/08 11:29:33;;;;;;;2.20;2.00;;;24.70;64.40;;;;;;10395799;28;20202;-79
2022/06/08 11:34:55;;;;;;;4.30;2.10;;;24.70;64.00;;;;;;10415230;28;20217;-78
2022/06/08 11:40:03;;;;;;;1.90;1.90;;;24.80;62.60;;;;;;10414557;28;20255;-78
2022/06/08 11:45:15;;;;;;;3.10;2.57;;;24.90;59.80;;;;;;10413140;28;20573;-78
2022/06/08 11:50:20;;;;;;;2.40;2.20;;;24.80;62.10;;;;;;10400952;28;20708;-78
2022/06/08 11:55:26;;;;;;;2.03;1.93;;;24.80;61.20;;;;;;10407556;28;20261;-78
2022/06/08 12:00:33;;;;;;;2.13;2.03;;;24.90;62.90;;;;;;10407042;28;20248;-78
2022/06/08 12:05:37;;;;;;;2.50;2.30;;;25.00;62.80;;;;;;10408669;28;20222;-79
2022/06/08 12:10:40;;;;;;;2.00;1.90;;;25.10;66.10;;;;;;10411242;28;20229;-79
2022/06/08 12:15:46;;;;;;;2.00;1.90;;;25.10;67.50;;;;;;10422260;22;20685;-81
2022/06/08 12:21:01;;;;;;;2.33;2.13;;;25.10;69.50;;;;;;10416040;28;20222;-82
2022/06/08 12:26:03;;;;;;;2.00;1.80;;;25.10;64.40;;;;;;10415662;28;20214;-83
2022/06/08 12:31:21;;;;;;;1.70;1.60;;;24.90;65.30;;;;;;10386562;28;20640;-81
2022/06/08 12:36:31;;;;;;;1.90;1.80;;;24.80;63.20;;;;;;10391327;28;20223;-81
2022/06/08 12:41:42;;;;;;;2.03;1.83;;;24.70;63.70;;;;;;10413417;28;20206;-81
2022/06/08 12:46:51;;;;;;;1.70;1.60;;;24.70;61.50;;;;;;10398163;28;20237;-82
2022/06/08 12:51:56;;;;;;;1.47;1.37;;;24.80;63.70;;;;;;10412876;28;20674;-82
2022/06/08 12:57:10;;;;;;;2.07;1.87;;;24.90;62.80;;;;;;10409980;28;20229;-83
2022/06/08 13:02:16;;;;;;;2.00;1.90;;;25.00;67.40;;;;;;10420169;28;20201;-82
2022/06/08 13:07:23;;;;;;;1.80;1.70;;;25.10;67.10;;;;;;10423923;28;20296;-83
2022/06/08 13:12:31;;;;;;;2.90;1.90;;;25.30;66.50;;;;;;10407384;28;20213;-83
2022/06/08 13:17:33;;;;;;;2.03;1.93;;;25.50;63.40;;;;;;10425743;28;20662;-82
2022/06/08 13:22:36;;;;;;;2.40;2.20;;;25.40;64.50;;;;;;10422261;28;20331;-83
2022/06/08 13:27:38;;;;;;;2.20;2.07;;;25.30;60.50;;;;;;10413487;28;20260;-82
2022/06/08 13:32:40;;;;;;;2.07;1.93;;;25.40;65.10;;;;;;10417280;28;20198;-83
2022/06/08 13:37:46;;;;;;;1.80;1.70;;;25.50;65.60;;;;;;10425232;28;20272;-83
2022/06/08 13:42:49;;;;;;;4.83;2.37;;;25.50;66.30;;;;;;10418179;28;20222;-83
2022/06/08 13:47:55;;;;;;;2.77;1.43;;;25.60;63.30;;;;;;10434632;28;20218;-83
2022/06/08 13:53:00;;;;;;;2.00;1.90;;;25.70;60.00;;;;;;10423539;28;20212;-82
2022/06/08 13:58:06;;;;;;;2.03;1.83;;;25.70;63.70;;;;;;10431434;28;20291;-81
2022/06/08 14:03:12;;;;;;;1.53;1.23;;;25.50;64.90;;;;;;10436449;28;20202;-80
2022/06/08 14:13:38;;;;;;;1.70;1.60;;;25.20;61.30;;;;;;10412068;28;20725;-81
2022/06/08 14:18:44;;;;;;;2.10;1.30;;;25.00;63.50;;;;;;10420449;28;20244;-81
2022/06/08 14:23:50;;;;;;;1.93;1.83;;;24.90;64.70;;;;;;10422244;28;20229;-80
2022/06/08 14:28:55;;;;;;;2.00;1.90;;;24.80;64.50;;;;;;10403790;28;20251;-81
2022/06/08 14:33:58;;;;;;;3.03;1.80;;;24.70;63.20;;;;;;10409169;28;20313;-82
2022/06/08 14:39:01;;;;;;;1.83;1.73;;;24.50;64.30;;;;;;10410427;28;20759;-79
2022/06/08 14:44:03;;;;;;;3.43;1.70;;;24.30;66.30;;;;;;10408974;28;20276;-80
2022/06/08 14:49:06;;;;;;;2.60;1.73;;;24.10;68.00;;;;;;10415374;28;20194;-83
2022/06/08 14:54:16;;;;;;;4.37;2.53;;;23.70;78.90;;;;;;10417364;28;20217;-79
2022/06/08 14:59:22;;;;;;;4.10;3.77;;;23.20;85.70;;;;;;10398873;28;20248;-81
2022/06/08 15:04:29;;;;;;;3.67;3.50;;;22.30;91.10;;;;;;10415209;28;20279;-81
2022/06/08 15:09:32;;;;;;;5.50;5.00;;;21.50;93.30;;;;;;10415621;28;20229;-81
2022/06/08 15:14:38;;;;;;;3.83;3.57;;;20.90;95.70;;;;;;10414503;28;20238;-81
2022/06/08 15:19:42;;;;;;;3.47;3.27;;;20.60;98.60;;;;;;10398826;28;20238;-80
2022/06/08 15:24:47;;;;;;;3.93;3.63;;;20.40;99.90;;;;;;10411269;28;20284;-81
2022/06/08 15:29:49;;;;;;;3.70;3.40;;;20.30;99.90;;;;;;10400610;28;20229;-80
2022/06/08 15:34:54;;;;;;;3.43;3.13;;;20.40;99.90;;;;;;10409483;28;20237;-80
2022/06/08 15:39:58;;;;;;;4.07;3.47;;;20.50;99.90;;;;;;10418233;28;20222;-81
2022/06/08 15:45:00;;;;;;;5.03;3.00;;;20.60;99.90;;;;;;10418653;28;20249;-82
2022/06/08 15:50:08;;;;;;;3.47;2.83;;;20.70;99.90;;;;;;10417063;28;20194;-83
2022/06/08 15:55:16;;;;;;;2.63;2.47;;;20.80;99.90;;;;;;10414076;28;20228;-82
2022/06/08 16:00:24;;;;;;;2.60;2.40;;;20.80;99.90;;;;;;10418794;28;20225;-79
2022/06/08 16:05:26;;;;;;;3.50;3.10;;;20.90;99.90;;;;;;10420135;28;20222;-81
2022/06/08 16:10:31;;;;;;;3.03;2.80;;;20.90;99.90;;;;;;10422389;28;20537;-82
2022/06/08 16:15:34;;;;;;;3.17;2.63;;;20.90;99.90;;;;;;10399585;28;20230;-82
2022/06/08 16:20:37;;;;;;;2.97;2.67;;;20.80;99.90;;;;;;10417397;28;20222;-80
2022/06/08 16:25:41;;;;;;;3.13;2.83;;;20.60;99.90;;;;;;10419761;28;20277;-82
2022/06/08 16:30:43;;;;;;;3.20;2.80;;;20.30;99.90;;;;;;10430702;28;20256;-81
2022/06/08 16:35:45;;;;;;;3.10;2.80;;;20.20;99.90;;;;;;10425015;28;20226;-82
2022/06/08 16:40:49;;;;;;;4.83;3.70;;;20.10;99.90;;;;;;10427353;28;20221;-81
2022/06/08 16:45:51;;;;;;;6.03;2.67;;;20.00;99.90;;;;;;10427899;28;20215;-81
2022/06/08 16:50:55;;;;;;;8.93;3.53;;;20.00;99.90;;;;;;10395662;28;20670;-80
2022/06/08 16:55:59;;;;;;;5.37;3.90;;;20.00;99.90;;;;;;10423315;28;20746;-81
2022/06/08 17:01:01;;;;;;;4.63;3.30;;;20.00;99.90;;;;;;10416614;28;20931;-82
2022/06/08 17:06:04;;;;;;;3.30;3.00;;;20.00;99.90;;;;;;10424181;28;20222;-81
2022/06/08 17:16:27;;;;;;;2.60;2.43;;;20.00;99.90;;;;;;10420831;28;20229;-83
2022/06/08 17:21:29;;;;;;;2.53;2.30;;;20.00;99.90;;;;;;10416471;28;20232;-83
2022/06/08 17:26:33;;;;;;;3.00;2.80;;;20.10;99.90;;;;;;10408329;28;20214;-83
2022/06/08 17:31:35;;;;;;;2.70;2.47;;;20.10;99.90;;;;;;10418987;28;20210;-84
2022/06/08 17:36:39;;;;;;;3.63;2.20;;;20.00;99.90;;;;;;10422322;28;20221;-83
2022/06/08 17:41:43;;;;;;;2.60;2.40;;;20.00;99.90;;;;;;10423666;28;20558;-83
2022/06/08 17:46:45;;;;;;;2.30;2.20;;;20.00;99.90;;;;;;10424563;28;20232;-83
2022/06/08 17:51:47;;;;;;;2.57;2.27;;;19.90;99.90;;;;;;10407662;28;20305;-82
2022/06/08 17:56:50;;;;;;;4.40;2.57;;;19.80;99.90;;;;;;10411483;28;20642;-83
2022/06/08 18:01:53;;;;;;;2.70;2.40;;;19.70;99.90;;;;;;10424878;28;20201;-83
2022/06/08 18:06:55;;;;;;;2.70;2.50;;;19.60;99.90;;;;;;10424785;28;20221;-82
2022/06/08 18:11:59;;;;;;;2.70;2.50;;;19.60;99.90;;;;;;10415420;28;20202;-81
2022/06/08 18:17:02;;;;;;;2.90;2.60;;;19.60;99.90;;;;;;10430262;28;20233;-81
2022/06/08 18:22:05;;;;;;;2.40;2.30;;;19.60;99.90;;;;;;10427428;28;20245;-81
2022/06/08 18:27:16;;;;;;;4.77;3.13;;;19.60;99.90;;;;;;10423518;28;20223;-82
2022/06/08 18:32:18;;;;;;;2.93;2.53;;;19.60;99.90;;;;;;10411878;28;20225;-82
2022/06/08 18:37:21;;;;;;;3.30;3.07;;;19.50;99.90;;;;;;10412917;28;20240;-82
2022/06/08 18:42:30;;;;;;;5.10;2.07;;;19.50;99.90;;;;;;10408488;28;20201;-82
2022/06/08 18:47:32;;;;;;;3.40;2.97;;;19.50;99.90;;;;;;10425513;28;20596;-81
2022/06/08 18:52:35;;;;;;;5.77;4.30;;;19.40;99.90;;;;;;10412926;28;20199;-82
2022/06/08 18:57:39;;;;;;;5.57;5.17;;;19.10;99.90;;;;;;10400233;28;20218;-83
2022/06/08 19:02:41;;;;;;;4.30;3.90;;;19.00;99.90;;;;;;10418741;28;20206;-82
2022/06/08 19:07:46;;;;;;;3.60;3.30;;;18.80;99.90;;;;;;10397202;28;20246;-82
2022/06/08 19:12:51;;;;;;;3.80;3.60;;;18.60;99.90;;;;;;10391893;28;20203;-82
2022/06/08 19:23:16;;;;;;;4.20;3.87;;;18.50;99.90;;;;;;10389287;28;20670;-83
2022/06/08 19:28:21;;;;;;;4.30;4.00;;;18.50;99.90;;;;;;10400923;28;20249;-83
2022/06/08 19:33:26;;;;;;;6.03;4.13;;;18.50;99.90;;;;;;10398414;28;20226;-83
2022/06/08 19:38:28;;;;;;;3.63;3.43;;;18.40;99.90;;;;;;10409166;28;20328;-82
2022/06/08 19:43:33;;;;;;;2.80;2.60;;;18.40;99.90;;;;;;10412209;28;20222;-80
2022/06/08 19:48:35;;;;;;;3.43;3.13;;;18.40;99.90;;;;;;10399027;28;20208;-81
2022/06/08 19:53:38;;;;;;;3.10;2.80;;;18.50;99.90;;;;;;10401803;28;20686;-80
2022/06/08 19:58:45;;;;;;;2.90;2.70;;;18.40;99.90;;;;;;10406290;28;20225;-82
2022/06/08 20:03:48;;;;;;;3.17;2.87;;;18.40;99.90;;;;;;10414893;28;20229;-81
2022/06/08 20:08:51;;;;;;;4.20;3.60;;;18.50;99.90;;;;;;10411603;28;20194;-82
2022/06/08 20:13:54;;;;;;;3.80;3.50;;;18.60;99.90;;;;;;10404896;28;20694;-82
2022/06/08 20:18:57;;;;;;;3.30;3.00;;;18.70;99.90;;;;;;10406278;28;20217;-81
2022/06/08 20:23:59;;;;;;;3.40;3.20;;;18.70;99.90;;;;;;10408190;28;20217;-80
2022/06/08 20:29:02;;;;;;;3.17;2.97;;;18.80;99.90;;;;;;10411038;28;20201;-82
2022/06/08 20:34:05;;;;;;;2.77;2.57;;;18.80;99.90;;;;;;10417439;28;20685;-82
2022/06/08 20:39:07;;;;;;;2.20;2.10;;;18.80;99.90;;;;;;10429952;28;20304;-82
2022/06/08 20:44:12;;;;;;;2.17;1.97;;;18.80;99.90;;;;;;10424660;28;20220;-82
2022/06/08 20:49:15;;;;;;;2.63;2.43;;;18.80;99.90;;;;;;10434949;28;20266;-81
2022/06/08 20:54:19;;;;;;;2.60;2.50;;;18.80;99.90;;;;;;10419382;28;20225;-82
2022/06/08 20:59:23;;;;;;;1.90;1.80;;;18.80;99.90;;;;;;10425954;28;20627;-82
2022/06/08 21:04:25;;;;;;;3.37;2.23;;;18.80;99.90;;;;;;10422139;28;20245;-81
2022/06/08 21:09:28;;;;;;;2.17;2.07;;;18.80;99.90;;;;;;10431049;28;20267;-82
2022/06/08 21:14:31;;;;;;;2.03;1.93;;;18.70;99.90;;;;;;10426770;28;20233;-82
2022/06/08 21:19:34;;;;;;;4.80;4.40;;;18.70;99.90;;;;;;10417669;28;20275;-82
2022/06/08 21:24:37;;;;;;;2.03;1.93;;;18.70;99.90;;;;;;10437268;28;20232;-82
2022/06/08 21:29:41;;;;;;;1.73;1.63;;;18.70;99.90;;;;;;10416913;28;20202;-82
2022/06/08 21:34:43;;;;;;;1.73;1.60;;;18.70;99.90;;;;;;10422436;28;20230;-82
2022/06/08 21:39:45;;;;;;;1.90;1.80;;;18.70;99.90;;;;;;10430945;28;20228;-82
2022/06/08 21:44:49;;;;;;;1.67;1.57;;;18.70;99.90;;;;;;10435163;28;20229;-82
2022/06/08 21:49:51;;;;;;;1.60;1.53;;;18.70;99.90;;;;;;10428347;28;20232;-82
2022/06/08 21:54:54;;;;;;;2.20;2.10;;;18.60;99.90;;;;;;10391884;28;20253;-82
2022/06/08 21:59:57;;;;;;;2.40;2.07;;;18.60;99.90;;;;;;10403609;28;20697;-82
2022/06/08 22:04:59;;;;;;;1.90;1.70;;;18.60;99.90;;;;;;10400523;28;20249;-81
2022/06/08 22:10:01;;;;;;;2.30;2.20;;;18.50;99.90;;;;;;10412164;28;20686;-83
2022/06/08 22:15:07;;;;;;;2.03;1.93;;;18.40;99.90;;;;;;10416846;28;20234;-83
2022/06/08 22:20:10;;;;;;;2.40;2.20;;;18.40;99.90;;;;;;10412540;28;20213;-83
2022/06/08 22:25:14;;;;;;;3.00;2.30;;;18.30;99.90;;;;;;10388541;28;20226;-83
2022/06/08 22:30:18;;;;;;;2.27;2.17;;;18.20;99.90;;;;;;10403171;28;20207;-81
2022/06/08 22:35:23;;;;;;;2.00;1.80;;;18.10;99.90;;;;;;10424275;28;20229;-82
2022/06/08 22:40:26;;;;;;;1.90;1.90;;;18.00;99.90;;;;;;10413568;28;20236;-81
2022/06/08 22:45:31;;;;;;;2.13;2.00;;;17.80;99.90;;;;;;10410107;28;20221;-81
2022/06/08 22:50:36;;;;;;;1.90;1.90;;;17.70;99.90;;;;;;10384278;28;20218;-81
2022/06/08 22:55:40;;;;;;;2.20;2.10;;;17.60;99.90;;;;;;10400469;28;20679;-81
2022/06/08 23:00:45;;;;;;;2.17;2.07;;;17.50;99.90;;;;;;10401599;28;20221;-81
2022/06/08 23:05:48;;;;;;;2.03;1.93;;;17.50;99.90;;;;;;10401333;28;20245;-82
2022/06/08 23:21:29;;;;;;;2.33;2.23;;;17.40;99.90;;;;;;10412994;28;20228;-81
2022/06/08 23:26:31;;;;;;;2.40;1.83;;;17.40;99.90;;;;;;10398296;28;20309;-82
2022/06/08 23:31:36;;;;;;;2.97;1.90;;;17.30;99.90;;;;;;10382981;28;20182;-81
2022/06/08 23:36:38;;;;;;;1.77;1.77;;;17.30;99.90;;;;;;10385001;28;20221;-81
2022/06/08 23:41:40;;;;;;;2.30;2.20;;;17.30;99.90;;;;;;10395539;28;20218;-81
2022/06/08 23:46:44;;;;;;;2.13;2.03;;;17.30;99.90;;;;;;10388427;28;20221;-82
2022/06/08 23:51:47;;;;;;;1.90;1.80;;;17.30;99.90;;;;;;10415464;28;20194;-83
2022/06/08 23:56:52;;;;;;;2.73;1.80;;;17.30;99.90;;;;;;10432589;28;20285;-82
